createdAt,value
2023-02-05T00:00:00.437Z,-2.11
2023-02-05T00:02:29.964Z,-2.22
2023-02-05T00:04:59.398Z,-2.10
2023-02-05T00:07:29.074Z,-2.16
2023-02-05T00:09:58.526Z,-2.15
2023-02-05T00:12:27.948Z,-2.23
2023-02-05T00:15:00.020Z,-2.18
2023-02-05T00:17:29.517Z,-2.20
2023-02-05T00:19:59.235Z,-2.20
2023-02-05T00:22:28.648Z,-2.25
2023-02-05T00:24:58.078Z,-2.10
2023-02-05T00:27:27.486Z,-1.88
2023-02-05T00:29:56.856Z,-1.95
2023-02-05T00:32:31.482Z,-2.07
2023-02-05T00:35:00.847Z,-2.07
2023-02-05T00:37:30.276Z,-2.20
2023-02-05T00:39:59.711Z,-2.32
2023-02-05T00:42:29.107Z,-2.20
2023-02-05T00:44:58.545Z,-2.14
2023-02-05T00:47:30.536Z,-2.10
2023-02-05T00:50:00.205Z,-2.13
2023-02-05T00:52:29.606Z,-2.24
2023-02-05T00:54:59.047Z,-2.22
2023-02-05T00:57:28.457Z,-2.21
2023-02-05T00:59:57.868Z,-2.06
2023-02-05T01:02:29.978Z,-1.75
2023-02-05T01:04:59.382Z,-1.70
2023-02-05T01:07:28.784Z,-1.62
2023-02-05T01:09:58.172Z,-1.34
2023-02-05T01:12:27.768Z,-1.25
2023-02-05T01:14:57.206Z,-1.09
2023-02-05T01:17:26.598Z,-1.02
2023-02-05T01:19:58.840Z,-1.08
2023-02-05T01:22:28.275Z,-1.19
2023-02-05T01:24:57.669Z,-1.59
2023-02-05T01:27:27.240Z,-1.30
2023-02-05T01:29:56.627Z,-1.31
2023-02-05T01:32:26.024Z,-1.44
2023-02-05T01:34:58.134Z,-1.14
2023-02-05T01:37:27.884Z,-0.92
2023-02-05T01:39:57.249Z,-1.07
2023-02-05T01:42:28.966Z,-1.40
2023-02-05T01:45:36.755Z,-1.31
2023-02-05T01:48:07.293Z,-1.29
2023-02-05T01:50:44.113Z,-1.42
2023-02-05T01:53:16.651Z,-1.34
2023-02-05T01:55:56.384Z,-1.06
2023-02-05T01:58:27.587Z,-1.38
2023-02-05T02:00:57.078Z,-1.31
2023-02-05T02:03:28.034Z,-1.38
2023-02-05T02:06:00.205Z,-1.34
2023-02-05T02:08:31.567Z,-1.39
2023-02-05T02:11:01.661Z,-1.41
2023-02-05T02:13:31.934Z,-1.36
2023-02-05T02:16:01.501Z,-1.23
2023-02-05T02:18:31.051Z,-1.12
2023-02-05T02:21:32.180Z,-1.36
2023-02-05T02:24:54.687Z,-1.01
2023-02-05T02:27:45.430Z,-1.40
2023-02-05T02:30:23.950Z,-1.39
2023-02-05T02:32:59.983Z,-1.28
2023-02-05T02:35:33.378Z,-0.99
2023-02-05T02:38:09.374Z,-1.06
2023-02-05T02:40:41.751Z,-1.28
2023-02-05T02:43:17.154Z,-1.15
2023-02-05T02:45:49.274Z,-1.23
2023-02-05T02:48:19.539Z,-1.19
2023-02-05T02:50:52.439Z,-1.28
2023-02-05T02:53:23.565Z,-1.24
2023-02-05T02:55:53.654Z,-1.50
2023-02-05T02:58:28.170Z,-1.31
2023-02-05T03:00:58.220Z,-1.16
2023-02-05T03:03:29.057Z,-0.68
2023-02-05T03:06:00.863Z,-0.76
2023-02-05T03:08:32.536Z,-0.85
2023-02-05T03:11:04.875Z,-1.22
2023-02-05T03:13:37.702Z,-1.43
2023-02-05T03:16:08.281Z,-1.28
2023-02-05T03:18:37.836Z,-1.13
2023-02-05T03:21:12.528Z,-1.04
2023-02-05T03:23:42.227Z,-1.21
2023-02-05T03:26:25.494Z,-1.26
2023-02-05T03:28:58.495Z,-1.32
2023-02-05T03:31:34.282Z,-1.08
2023-02-05T03:34:10.828Z,-0.87
2023-02-05T03:36:48.931Z,-0.84
2023-02-05T03:39:27.439Z,-0.96
2023-02-05T03:42:05.018Z,-0.84
2023-02-05T03:44:56.787Z,-0.88
2023-02-05T03:47:35.619Z,-1.01
2023-02-05T03:50:14.561Z,-0.83
2023-02-05T03:52:48.350Z,-0.97
2023-02-05T03:55:21.709Z,-0.81
2023-02-05T03:57:54.768Z,-0.63
2023-02-05T04:00:27.823Z,-0.80
2023-02-05T04:02:57.389Z,-0.77
2023-02-05T04:05:26.852Z,-0.96
2023-02-05T04:07:56.382Z,-0.94
2023-02-05T04:10:26.149Z,-0.48
2023-02-05T04:12:55.549Z,-0.66
2023-02-05T04:15:27.614Z,-0.78
2023-02-05T04:17:57.947Z,-0.76
2023-02-05T04:20:27.493Z,-0.99
2023-02-05T04:22:56.898Z,-0.97
2023-02-05T04:25:26.342Z,-0.77
2023-02-05T04:27:57.046Z,-0.89
2023-02-05T04:30:29.080Z,-0.85
2023-02-05T04:32:58.543Z,-0.88
2023-02-05T04:35:28.211Z,-0.75
2023-02-05T04:37:57.629Z,-0.68
2023-02-05T04:40:27.035Z,-0.96
2023-02-05T04:42:56.408Z,-1.02
2023-02-05T04:45:29.075Z,-0.97
2023-02-05T04:48:01.366Z,-0.98
2023-02-05T04:50:30.905Z,-0.99
2023-02-05T04:53:02.174Z,-0.61
2023-02-05T04:55:32.119Z,-0.86
2023-02-05T04:58:03.024Z,-0.79
2023-02-05T05:00:32.787Z,-0.91
2023-02-05T05:03:05.100Z,-0.79
2023-02-05T05:05:34.802Z,-0.61
2023-02-05T05:08:04.399Z,-0.84
2023-02-05T05:10:33.803Z,-0.61
2023-02-05T05:13:03.218Z,-1.03
2023-02-05T05:15:33.073Z,-0.98
2023-02-05T05:18:05.301Z,-0.86
2023-02-05T05:20:34.721Z,-0.79
2023-02-05T05:23:04.278Z,-0.86
2023-02-05T05:25:33.910Z,-0.66
2023-02-05T05:28:03.480Z,-0.50
2023-02-05T05:30:32.954Z,-0.65
2023-02-05T05:33:04.907Z,-0.80
2023-02-05T05:35:34.732Z,-0.91
2023-02-05T05:38:04.591Z,-0.71
2023-02-05T05:40:46.741Z,-0.77
2023-02-05T05:43:30.356Z,-0.76
2023-02-05T05:45:59.907Z,-0.60
2023-02-05T05:48:31.953Z,-0.46
2023-02-05T05:51:01.369Z,0.58
2023-02-05T05:53:30.814Z,0.83
2023-02-05T05:56:00.228Z,1.43
2023-02-05T05:58:29.681Z,1.94
2023-02-05T06:00:59.275Z,1.37
2023-02-05T06:03:28.693Z,0.92
2023-02-05T06:06:03.631Z,1.48
2023-02-05T06:08:33.108Z,1.35
2023-02-05T06:11:02.566Z,1.78
2023-02-05T06:13:31.951Z,1.60
2023-02-05T06:16:01.363Z,1.52
2023-02-05T06:18:30.874Z,2.00
2023-02-05T06:21:03.605Z,0.55
2023-02-05T06:23:33.037Z,-0.26
2023-02-05T06:26:02.460Z,-0.70
2023-02-05T06:28:31.817Z,-1.03
2023-02-05T06:31:01.382Z,-1.10
2023-02-05T06:33:30.849Z,-1.05
2023-02-05T06:36:02.804Z,-0.97
2023-02-05T06:38:32.223Z,-1.24
2023-02-05T06:41:01.629Z,-1.19
2023-02-05T06:43:31.011Z,-1.12
2023-02-05T06:46:00.457Z,-1.17
2023-02-05T06:48:29.983Z,-1.13
2023-02-05T06:51:02.061Z,-0.96
2023-02-05T06:53:31.432Z,-1.02
2023-02-05T06:56:01.060Z,-1.11
2023-02-05T06:58:30.606Z,-1.19
2023-02-05T07:01:00.035Z,-1.29
2023-02-05T07:03:29.441Z,-1.09
2023-02-05T07:05:58.858Z,-1.20
2023-02-05T07:08:30.889Z,-1.33
2023-02-05T07:11:00.454Z,-1.39
2023-02-05T07:13:29.913Z,-1.46
2023-02-05T07:15:59.474Z,-1.41
2023-02-05T07:18:28.933Z,-1.62
2023-02-05T07:20:58.340Z,-1.65
2023-02-05T07:23:30.294Z,-1.58
2023-02-05T07:25:59.788Z,-1.48
2023-02-05T07:28:29.179Z,-1.48
2023-02-05T07:31:00.246Z,-1.44
2023-02-05T07:33:29.739Z,-1.51
2023-02-05T07:35:59.101Z,-1.50
2023-02-05T07:38:31.047Z,-1.67
2023-02-05T07:41:00.472Z,-1.56
2023-02-05T07:43:29.868Z,-1.60
2023-02-05T07:46:00.606Z,-1.59
2023-02-05T07:48:30.340Z,-1.50
2023-02-05T07:50:59.772Z,-1.41
2023-02-05T07:53:31.882Z,-1.28
2023-02-05T07:56:05.014Z,-1.43
2023-02-05T07:58:34.458Z,-1.33
2023-02-05T08:01:04.574Z,-1.24
2023-02-05T08:03:34.684Z,-1.22
2023-02-05T08:06:06.901Z,-1.23
2023-02-05T08:08:38.856Z,0.00
2023-02-05T08:11:09.295Z,0.44
2023-02-05T08:13:38.882Z,1.08
2023-02-05T08:16:08.951Z,0.88
2023-02-05T08:18:38.447Z,0.83
2023-02-05T08:21:08.376Z,0.74
2023-02-05T08:23:40.373Z,0.45
2023-02-05T08:26:09.746Z,0.43
2023-02-05T08:28:39.171Z,1.08
2023-02-05T08:31:13.153Z,0.56
2023-02-05T08:33:42.654Z,0.58
2023-02-05T08:36:12.973Z,0.50
2023-02-05T08:38:45.000Z,0.61
2023-02-05T08:41:15.191Z,0.76
2023-02-05T08:43:46.078Z,0.79
2023-02-05T08:46:17.683Z,0.71
2023-02-05T08:48:47.246Z,0.48
2023-02-05T08:51:17.532Z,0.61
2023-02-05T08:53:49.627Z,0.43
2023-02-05T08:56:20.255Z,0.35
2023-02-05T08:58:49.859Z,0.24
2023-02-05T09:01:19.866Z,0.16
2023-02-05T09:03:49.326Z,0.34
2023-02-05T09:06:18.953Z,0.40
2023-02-05T09:08:50.906Z,0.37
2023-02-05T09:11:23.583Z,0.30
2023-02-05T09:13:52.974Z,0.37
2023-02-05T09:16:22.566Z,0.38
2023-02-05T09:18:52.443Z,0.69
2023-02-05T09:21:21.870Z,0.52
2023-02-05T09:23:53.981Z,0.41
2023-02-05T09:26:24.061Z,0.46
2023-02-05T09:28:53.617Z,0.72
2023-02-05T09:31:23.718Z,0.45
2023-02-05T09:33:53.164Z,0.32
2023-02-05T09:36:24.430Z,0.23
2023-02-05T09:39:11.832Z,0.12
2023-02-05T09:41:50.013Z,0.19
2023-02-05T09:44:24.243Z,0.17
2023-02-05T09:46:58.824Z,0.01
2023-02-05T09:49:31.535Z,-0.01
2023-02-05T09:52:04.191Z,0.00
2023-02-05T09:54:38.469Z,-0.04
2023-02-05T09:57:10.693Z,0.06
2023-02-05T09:59:40.228Z,-0.10
2023-02-05T10:02:21.819Z,-0.05
2023-02-05T10:04:54.804Z,0.09
2023-02-05T10:07:38.324Z,0.01
2023-02-05T10:10:22.582Z,0.00
2023-02-05T10:13:24.265Z,0.15
2023-02-05T10:16:07.200Z,0.06
2023-02-05T10:18:47.250Z,0.10
2023-02-05T10:21:29.597Z,0.32
2023-02-05T10:24:15.647Z,0.35
2023-02-05T10:26:52.421Z,0.35
2023-02-05T10:29:28.667Z,0.24
2023-02-05T10:32:08.354Z,0.12
2023-02-05T10:34:50.620Z,0.24
2023-02-05T10:37:21.561Z,0.09
2023-02-05T10:39:51.819Z,-0.15
2023-02-05T10:42:30.885Z,0.06
2023-02-05T10:45:06.727Z,0.32
2023-02-05T10:48:00.227Z,0.56
2023-02-05T10:50:33.760Z,0.55
2023-02-05T10:53:03.315Z,0.46
2023-02-05T10:55:33.127Z,0.39
2023-02-05T10:58:15.550Z,0.42
2023-02-05T11:00:44.985Z,0.45
2023-02-05T11:03:19.578Z,0.48
2023-02-05T11:05:49.120Z,0.46
2023-02-05T11:08:34.876Z,0.46
2023-02-05T11:11:05.415Z,0.48
2023-02-05T11:13:39.661Z,0.47
2023-02-05T11:16:11.100Z,2.46
2023-02-05T11:18:43.469Z,3.54
2023-02-05T11:21:13.468Z,3.13
2023-02-05T11:23:43.730Z,3.15
2023-02-05T11:26:20.591Z,1.88
2023-02-05T11:28:52.742Z,1.74
2023-02-05T11:31:26.030Z,2.03
2023-02-05T11:34:12.932Z,1.66
2023-02-05T11:36:52.532Z,1.41
2023-02-05T11:39:31.865Z,1.45
2023-02-05T11:42:02.881Z,1.37
2023-02-05T11:44:35.707Z,1.19
2023-02-05T11:47:05.449Z,1.24
2023-02-05T11:49:36.775Z,1.17
2023-02-05T11:52:11.830Z,1.14
2023-02-05T11:54:42.242Z,1.12
2023-02-05T11:57:32.815Z,1.15
2023-02-05T12:00:21.889Z,1.17
2023-02-05T12:02:54.186Z,1.26
2023-02-05T12:05:26.452Z,1.28
2023-02-05T12:07:59.730Z,1.30
2023-02-05T12:10:38.132Z,1.27
2023-02-05T12:13:14.035Z,1.23
2023-02-05T12:15:50.568Z,1.24
2023-02-05T12:18:25.739Z,1.20
2023-02-05T12:21:06.612Z,1.19
2023-02-05T12:23:57.701Z,1.19
2023-02-05T12:26:33.408Z,1.18
2023-02-05T12:29:11.816Z,1.35
2023-02-05T12:31:53.302Z,1.24
2023-02-05T12:34:28.000Z,1.15
2023-02-05T12:37:11.436Z,1.08
2023-02-05T12:39:44.396Z,1.10
2023-02-05T12:42:22.751Z,1.23
2023-02-05T12:45:05.833Z,1.28
2023-02-05T12:47:49.491Z,1.34
2023-02-05T12:50:43.368Z,1.40
2023-02-05T12:53:23.111Z,1.61
2023-02-05T12:56:06.874Z,1.67
2023-02-05T12:58:39.334Z,1.65
2023-02-05T13:01:12.957Z,1.63
2023-02-05T13:03:46.702Z,1.53
2023-02-05T13:06:19.429Z,1.63
2023-02-05T13:08:52.531Z,1.32
2023-02-05T13:11:25.632Z,1.18
2023-02-05T13:13:59.860Z,1.26
2023-02-05T13:16:35.598Z,1.28
2023-02-05T13:19:17.177Z,1.28
2023-02-05T13:21:59.521Z,1.24
2023-02-05T13:24:46.143Z,1.24
2023-02-05T13:27:36.681Z,1.18
2023-02-05T13:30:07.009Z,1.23
2023-02-05T13:32:37.524Z,1.37
2023-02-05T13:35:10.524Z,1.39
2023-02-05T13:37:53.830Z,1.31
2023-02-05T13:40:31.581Z,1.27
2023-02-05T13:43:34.090Z,1.35
2023-02-05T13:46:28.555Z,1.46
2023-02-05T13:49:35.480Z,1.46
2023-02-05T13:52:22.538Z,1.44
2023-02-05T13:55:10.162Z,1.45
2023-02-05T13:58:22.342Z,1.57
2023-02-05T14:00:59.381Z,1.53
2023-02-05T14:03:35.757Z,1.61
2023-02-05T14:06:16.503Z,1.60
2023-02-05T14:08:48.571Z,1.61
2023-02-05T14:11:19.252Z,1.64
2023-02-05T14:14:17.043Z,1.55
2023-02-05T14:16:49.715Z,1.62
2023-02-05T14:19:24.103Z,1.78
2023-02-05T14:22:12.842Z,1.77
2023-02-05T14:24:53.838Z,1.69
2023-02-05T14:27:49.699Z,1.68
2023-02-05T14:30:37.864Z,1.61
2023-02-05T14:33:30.350Z,1.52
2023-02-05T14:36:00.683Z,1.54
2023-02-05T14:38:34.851Z,1.57
2023-02-05T14:41:13.505Z,1.56
2023-02-05T14:43:44.050Z,1.51
2023-02-05T14:46:24.302Z,1.44
2023-02-05T14:48:58.234Z,1.36
2023-02-05T14:51:29.774Z,1.53
2023-02-05T14:54:01.409Z,1.72
2023-02-05T14:56:40.230Z,1.69
2023-02-05T14:59:23.194Z,1.67
2023-02-05T15:01:54.551Z,1.66
2023-02-05T15:04:42.555Z,1.66
2023-02-05T15:07:15.907Z,1.58
2023-02-05T15:09:48.806Z,1.54
2023-02-05T15:12:45.139Z,1.90
2023-02-05T15:15:33.362Z,2.80
2023-02-05T15:18:08.230Z,2.72
2023-02-05T15:20:40.389Z,2.13
2023-02-05T15:23:21.728Z,2.06
2023-02-05T15:25:57.291Z,1.75
2023-02-05T15:28:31.896Z,1.73
2023-02-05T15:31:09.449Z,2.07
2023-02-05T15:33:46.076Z,2.33
2023-02-05T15:36:22.292Z,2.38
2023-02-05T15:38:56.237Z,2.01
2023-02-05T15:41:26.750Z,1.70
2023-02-05T15:44:06.712Z,1.53
2023-02-05T15:46:36.475Z,1.39
2023-02-05T15:49:08.422Z,1.40
2023-02-05T15:51:39.011Z,1.54
2023-02-05T15:54:10.145Z,1.55
2023-02-05T15:56:42.311Z,1.56
2023-02-05T15:59:20.412Z,1.40
2023-02-05T16:01:51.528Z,1.28
2023-02-05T16:04:22.540Z,1.18
2023-02-05T16:06:52.227Z,1.16
2023-02-05T16:09:24.163Z,1.18
2023-02-05T16:11:54.150Z,1.21
2023-02-05T16:14:28.641Z,2.93
2023-02-05T16:17:05.128Z,2.50
2023-02-05T16:19:36.606Z,2.94
2023-02-05T16:22:13.402Z,3.44
2023-02-05T16:24:44.632Z,2.66
2023-02-05T16:27:17.126Z,2.10
2023-02-05T16:29:52.197Z,1.95
2023-02-05T16:32:28.411Z,1.91
2023-02-05T16:34:58.017Z,1.82
2023-02-05T16:37:30.769Z,1.72
2023-02-05T16:40:01.655Z,1.85
2023-02-05T16:42:38.133Z,1.56
2023-02-05T16:45:34.118Z,1.53
2023-02-05T16:48:28.315Z,1.30
2023-02-05T16:50:57.925Z,1.32
2023-02-05T16:53:29.425Z,1.37
2023-02-05T16:56:02.064Z,1.06
2023-02-05T16:58:39.589Z,1.00
2023-02-05T17:01:11.684Z,1.06
2023-02-05T17:03:42.635Z,0.98
2023-02-05T17:06:15.699Z,1.01
2023-02-05T17:08:47.273Z,1.13
2023-02-05T17:11:35.634Z,1.13
2023-02-05T17:14:23.567Z,0.94
2023-02-05T17:16:59.650Z,0.96
2023-02-05T17:19:30.411Z,0.99
2023-02-05T17:22:21.699Z,1.00
2023-02-05T17:24:52.097Z,1.08
2023-02-05T17:27:26.203Z,1.08
2023-02-05T17:29:55.790Z,0.87
2023-02-05T17:32:29.443Z,0.99
2023-02-05T17:34:59.940Z,1.20
2023-02-05T17:37:29.346Z,1.06
2023-02-05T17:39:58.712Z,0.98
2023-02-05T17:42:31.173Z,1.05
2023-02-05T17:45:00.643Z,0.96
2023-02-05T17:47:32.639Z,0.87
2023-02-05T17:50:02.108Z,1.39
2023-02-05T17:52:31.548Z,2.12
2023-02-05T17:55:00.967Z,1.88
2023-02-05T17:57:33.779Z,2.03
2023-02-05T18:00:03.363Z,1.93
2023-02-05T18:02:35.413Z,1.63
2023-02-05T18:05:05.182Z,1.35
2023-02-05T18:07:36.516Z,1.14
2023-02-05T18:10:06.199Z,0.96
2023-02-05T18:12:35.962Z,0.80
2023-02-05T18:15:05.863Z,0.82
2023-02-05T18:17:37.938Z,0.93
2023-02-05T18:20:08.670Z,0.89
2023-02-05T18:22:38.662Z,0.80
2023-02-05T18:25:09.909Z,0.75
2023-02-05T18:27:39.563Z,0.73
2023-02-05T18:30:10.180Z,0.73
2023-02-05T18:32:42.211Z,0.70
2023-02-05T18:35:14.512Z,0.73
2023-02-05T18:37:44.487Z,0.64
2023-02-05T18:40:15.230Z,0.62
2023-02-05T18:42:47.009Z,0.73
2023-02-05T18:45:16.509Z,0.75
2023-02-05T18:47:48.510Z,0.69
2023-02-05T18:50:18.989Z,0.58
2023-02-05T18:52:48.410Z,0.44
2023-02-05T18:55:17.907Z,0.49
2023-02-05T18:57:47.372Z,0.48
2023-02-05T19:00:17.752Z,0.51
2023-02-05T19:02:49.742Z,0.47
2023-02-05T19:05:19.217Z,0.46
2023-02-05T19:07:48.591Z,0.45
2023-02-05T19:10:18.984Z,0.43
2023-02-05T19:12:48.975Z,0.45
2023-02-05T19:15:18.472Z,0.51
2023-02-05T19:17:50.503Z,0.40
2023-02-05T19:20:20.331Z,0.38
2023-02-05T19:22:49.740Z,0.33
2023-02-05T19:25:19.278Z,0.27
2023-02-05T19:27:48.767Z,0.25
2023-02-05T19:30:18.748Z,0.25
2023-02-05T19:32:50.749Z,0.28
2023-02-05T19:35:20.394Z,0.25
2023-02-05T19:37:49.758Z,0.28
2023-02-05T19:40:19.822Z,0.24
2023-02-05T19:42:49.210Z,0.48
2023-02-05T19:45:18.716Z,1.73
2023-02-05T19:47:50.666Z,1.46
2023-02-05T19:50:20.145Z,1.29
2023-02-05T19:52:50.685Z,1.01
2023-02-05T19:55:20.321Z,1.08
2023-02-05T19:57:49.761Z,1.14
2023-02-05T20:00:19.935Z,1.05
2023-02-05T20:02:55.735Z,1.01
2023-02-05T20:05:25.519Z,0.90
2023-02-05T20:07:55.653Z,0.77
2023-02-05T20:10:25.086Z,0.61
2023-02-05T20:12:54.755Z,0.50
2023-02-05T20:15:24.223Z,0.44
2023-02-05T20:17:58.423Z,0.36
2023-02-05T20:20:33.516Z,0.29
2023-02-05T20:23:03.315Z,0.37
2023-02-05T20:25:32.802Z,0.35
2023-02-05T20:28:02.299Z,0.30
2023-02-05T20:30:44.387Z,0.20
2023-02-05T20:33:16.449Z,0.30
2023-02-05T20:35:45.870Z,0.37
2023-02-05T20:38:15.333Z,0.38
2023-02-05T20:40:44.805Z,0.34
2023-02-05T20:43:14.229Z,0.22
2023-02-05T20:45:43.662Z,0.19
2023-02-05T20:48:15.719Z,0.12
2023-02-05T20:50:45.106Z,0.16
2023-02-05T20:53:14.483Z,0.10
2023-02-05T20:55:43.876Z,0.09
2023-02-05T20:58:13.294Z,0.08
2023-02-05T21:00:42.941Z,0.08
2023-02-05T21:03:12.402Z,0.07
2023-02-05T21:05:44.816Z,0.20
2023-02-05T21:08:14.215Z,0.10
2023-02-05T21:10:43.659Z,0.07
2023-02-05T21:13:13.089Z,-0.09
2023-02-05T21:15:42.467Z,0.03
2023-02-05T21:18:12.854Z,0.06
2023-02-05T21:20:44.894Z,0.03
2023-02-05T21:23:14.305Z,-0.02
2023-02-05T21:25:44.011Z,-0.15
2023-02-05T21:28:13.892Z,-0.10
2023-02-05T21:30:44.082Z,-0.17
2023-02-05T21:33:13.486Z,-0.22
2023-02-05T21:35:45.506Z,-0.21
2023-02-05T21:38:14.931Z,-0.29
2023-02-05T21:40:47.165Z,-0.40
2023-02-05T21:43:16.562Z,-0.55
2023-02-05T21:45:46.110Z,-0.58
2023-02-05T21:48:15.562Z,-0.69
2023-02-05T21:50:47.599Z,-0.68
2023-02-05T21:53:17.607Z,-0.74
2023-02-05T21:55:46.996Z,-0.72
2023-02-05T21:58:16.392Z,-0.64
2023-02-05T22:00:45.816Z,-0.62
2023-02-05T22:03:15.305Z,-0.57
2023-02-05T22:05:47.300Z,-0.61
2023-02-05T22:08:16.690Z,-0.64
2023-02-05T22:10:46.052Z,-0.78
2023-02-05T22:13:15.515Z,-0.81
2023-02-05T22:15:44.967Z,-0.76
2023-02-05T22:18:14.402Z,-0.71
2023-02-05T22:20:44.236Z,-0.79
2023-02-05T22:23:16.298Z,-0.83
2023-02-05T22:25:48.904Z,-0.85
2023-02-05T22:28:18.473Z,-0.90
2023-02-05T22:30:47.865Z,-0.96
2023-02-05T22:33:17.264Z,-0.99
2023-02-05T22:35:46.639Z,-0.97
2023-02-05T22:38:18.689Z,-0.92
2023-02-05T22:40:48.097Z,-0.94
2023-02-05T22:43:17.537Z,-0.97
2023-02-05T22:45:47.052Z,-1.05
2023-02-05T22:48:16.501Z,-1.04
2023-02-05T22:50:46.753Z,-1.10
2023-02-05T22:53:18.794Z,-1.15
2023-02-05T22:55:48.227Z,-1.20
2023-02-05T22:58:17.635Z,-1.19
2023-02-05T23:00:47.404Z,-1.25
2023-02-05T23:03:16.813Z,-1.19
2023-02-05T23:05:46.908Z,-1.25
2023-02-05T23:08:19.113Z,-1.27
2023-02-05T23:10:48.643Z,-1.31
2023-02-05T23:13:18.069Z,-1.28
2023-02-05T23:15:47.520Z,-1.30
2023-02-05T23:18:16.894Z,-1.28
2023-02-05T23:20:46.329Z,-1.32
2023-02-05T23:23:15.770Z,-1.29
2023-02-05T23:25:50.044Z,-1.30
2023-02-05T23:28:19.744Z,-1.34
2023-02-05T23:30:49.283Z,-1.35
2023-02-05T23:33:19.534Z,-1.34
2023-02-05T23:35:48.911Z,-1.38
2023-02-05T23:38:18.305Z,-1.37
2023-02-05T23:40:50.438Z,-1.42
2023-02-05T23:43:20.054Z,-1.50
2023-02-05T23:45:49.602Z,-1.46
2023-02-05T23:48:19.359Z,-1.48
2023-02-05T23:50:51.768Z,-1.50
2023-02-05T23:53:22.199Z,-1.55
2023-02-05T23:55:55.329Z,-1.57
2023-02-05T23:58:27.898Z,-1.53
